createdAt,value
2018-04-22T00:01:03.037Z,10.30
2018-04-22T00:03:35.647Z,10.77
2018-04-22T00:06:08.315Z,9.77
2018-04-22T00:08:40.732Z,10.50
2018-04-22T00:11:13.371Z,11.93
2018-04-22T00:13:45.957Z,11.07
2018-04-22T00:16:18.528Z,10.83
2018-04-22T00:18:51.112Z,11.07
2018-04-22T00:21:24.386Z,10.33
2018-04-22T00:23:56.860Z,9.97
2018-04-22T00:26:30.424Z,20.77
2018-04-22T00:29:03.717Z,16.00
2018-04-22T00:31:36.067Z,12.37
2018-04-22T00:34:08.547Z,12.73
2018-04-22T00:36:41.410Z,12.03
2018-04-22T00:39:14.077Z,12.03
2018-04-22T00:41:46.694Z,10.47
2018-04-22T00:44:19.250Z,12.03
2018-04-22T00:46:52.032Z,11.87
2018-04-22T00:49:24.613Z,11.20
2018-04-22T00:51:57.180Z,10.50
2018-04-22T00:54:29.991Z,10.77
2018-04-22T00:57:03.333Z,9.93
2018-04-22T00:59:35.772Z,9.87
2018-04-22T01:02:09.029Z,9.00
2018-04-22T01:04:42.146Z,10.53
2018-04-22T01:07:15.498Z,10.57
2018-04-22T01:09:48.092Z,9.43
2018-04-22T01:12:20.902Z,9.50
2018-04-22T01:14:53.572Z,9.40
2018-04-22T01:17:26.161Z,10.00
2018-04-22T01:19:58.818Z,9.57
2018-04-22T01:22:31.297Z,8.60
2018-04-22T01:25:04.727Z,9.27
2018-04-22T01:27:38.804Z,9.47
2018-04-22T01:30:12.075Z,9.87
2018-04-22T01:32:44.441Z,9.43
2018-04-22T01:35:17.090Z,8.43
2018-04-22T01:37:49.752Z,8.40
2018-04-22T01:40:22.333Z,8.40
2018-04-22T01:42:55.008Z,9.47
2018-04-22T01:45:28.515Z,8.03
2018-04-22T01:48:01.039Z,8.40
2018-04-22T01:50:33.758Z,7.70
2018-04-22T01:53:06.298Z,8.70
2018-04-22T01:55:39.447Z,7.70
2018-04-22T01:58:11.886Z,7.73
2018-04-22T02:00:45.365Z,7.60
2018-04-22T02:03:18.563Z,8.07
2018-04-22T02:05:51.727Z,7.20
2018-04-22T02:08:24.157Z,7.73
2018-04-22T02:10:57.352Z,6.60
2018-04-22T02:13:29.800Z,6.80
2018-04-22T02:16:02.345Z,6.60
2018-04-22T02:18:34.954Z,7.20
2018-04-22T02:21:07.620Z,7.47
2018-04-22T02:23:40.449Z,7.00
2018-04-22T02:26:12.920Z,6.70
2018-04-22T02:28:45.246Z,7.57
2018-04-22T02:31:17.579Z,7.40
2018-04-22T02:33:50.485Z,7.57
2018-04-22T02:36:22.898Z,6.83
2018-04-22T02:38:56.529Z,6.87
2018-04-22T02:41:29.169Z,6.40
2018-04-22T02:44:01.883Z,6.97
2018-04-22T02:46:34.588Z,6.27
2018-04-22T02:49:07.137Z,6.77
2018-04-22T02:51:39.542Z,6.30
2018-04-22T02:54:11.911Z,5.90
2018-04-22T02:56:44.443Z,6.37
2018-04-22T02:59:17.031Z,5.83
2018-04-22T03:01:49.685Z,5.60
2018-04-22T03:04:22.074Z,5.80
2018-04-22T03:06:54.520Z,5.50
2018-04-22T03:09:27.072Z,6.00
2018-04-22T03:11:59.608Z,5.67
2018-04-22T03:14:32.130Z,5.70
2018-04-22T03:17:04.850Z,5.73
2018-04-22T03:19:37.342Z,5.47
2018-04-22T03:22:09.865Z,5.40
2018-04-22T03:24:42.164Z,5.20
2018-04-22T03:27:14.715Z,5.87
2018-04-22T03:29:48.572Z,5.43
2018-04-22T03:32:21.128Z,5.97
2018-04-22T03:34:53.620Z,5.40
2018-04-22T03:37:26.032Z,5.70
2018-04-22T03:39:58.464Z,5.80
2018-04-22T03:42:31.622Z,5.50
2018-04-22T03:45:04.104Z,5.47
2018-04-22T03:47:36.602Z,5.97
2018-04-22T03:50:09.166Z,6.40
2018-04-22T03:52:41.602Z,6.07
2018-04-22T03:55:14.403Z,5.27
2018-04-22T03:57:46.914Z,5.70
2018-04-22T04:00:19.278Z,6.40
2018-04-22T04:02:52.010Z,5.53
2018-04-22T04:05:24.779Z,5.53
2018-04-22T04:07:57.338Z,5.57
2018-04-22T04:10:29.908Z,6.30
2018-04-22T04:13:03.179Z,6.13
2018-04-22T04:15:35.762Z,5.67
2018-04-22T04:21:28.693Z,5.60
2018-04-22T04:24:30.961Z,6.40
2018-04-22T04:27:24.560Z,6.50
2018-04-22T04:29:57.242Z,6.90
2018-04-22T04:32:29.746Z,5.97
2018-04-22T04:35:02.411Z,6.43
2018-04-22T04:37:34.873Z,6.37
2018-04-22T04:40:07.202Z,6.60
2018-04-22T04:42:39.753Z,6.90
2018-04-22T04:45:13.080Z,7.50
2018-04-22T04:47:45.472Z,7.83
2018-04-22T04:50:18.061Z,8.00
2018-04-22T04:52:50.564Z,7.63
2018-04-22T04:55:24.059Z,6.67
2018-04-22T04:57:57.381Z,8.37
2018-04-22T05:00:30.287Z,7.90
2018-04-22T05:03:02.731Z,6.77
2018-04-22T05:05:35.195Z,7.17
2018-04-22T05:08:07.743Z,7.90
2018-04-22T05:10:41.164Z,6.93
2018-04-22T05:13:13.592Z,7.13
2018-04-22T05:15:46.767Z,6.90
2018-04-22T05:18:19.546Z,6.77
2018-04-22T05:20:51.874Z,7.30
2018-04-22T05:23:24.357Z,8.03
2018-04-22T05:25:56.917Z,7.50
2018-04-22T05:28:29.319Z,8.00
2018-04-22T05:31:01.847Z,7.40
2018-04-22T05:33:34.315Z,7.70
2018-04-22T05:36:07.448Z,7.87
2018-04-22T05:38:39.905Z,7.73
2018-04-22T05:41:12.457Z,8.20
2018-04-22T05:43:45.752Z,7.77
2018-04-22T05:46:18.123Z,7.83
2018-04-22T05:48:50.530Z,7.50
2018-04-22T05:51:23.076Z,8.13
2018-04-22T05:53:55.650Z,9.00
2018-04-22T05:56:28.219Z,8.80
2018-04-22T05:59:00.754Z,8.53
2018-04-22T06:01:33.207Z,8.57
2018-04-22T06:04:06.024Z,7.93
2018-04-22T06:06:39.208Z,8.77
2018-04-22T06:09:11.867Z,9.50
2018-04-22T06:11:44.438Z,10.87
2018-04-22T06:14:17.643Z,9.63
2018-04-22T06:16:50.663Z,10.70
2018-04-22T06:19:23.067Z,11.17
2018-04-22T06:21:55.466Z,11.57
2018-04-22T06:24:27.924Z,12.67
2018-04-22T06:27:01.328Z,11.90
2018-04-22T06:29:33.910Z,11.07
2018-04-22T06:32:06.483Z,11.10
2018-04-22T06:34:38.974Z,12.50
2018-04-22T06:37:12.398Z,11.63
2018-04-22T06:39:44.863Z,11.77
2018-04-22T06:42:17.385Z,12.43
2018-04-22T06:44:50.279Z,12.53
2018-04-22T06:47:22.597Z,13.20
2018-04-22T06:49:55.109Z,11.67
2018-04-22T06:52:28.292Z,12.67
2018-04-22T06:55:00.667Z,11.30
2018-04-22T06:57:33.105Z,16.13
2018-04-22T07:00:05.720Z,15.70
2018-04-22T07:02:38.223Z,15.13
2018-04-22T07:05:12.047Z,16.60
2018-04-22T07:07:45.137Z,15.60
2018-04-22T07:10:17.661Z,17.20
2018-04-22T07:12:50.143Z,16.60
2018-04-22T07:15:23.271Z,16.67
2018-04-22T07:17:55.628Z,16.30
2018-04-22T07:20:28.119Z,15.53
2018-04-22T07:23:00.753Z,17.30
2018-04-22T07:25:34.803Z,16.30
2018-04-22T07:28:07.987Z,17.67
2018-04-22T07:30:40.569Z,15.87
2018-04-22T07:33:13.252Z,16.77
2018-04-22T07:35:46.582Z,18.17
2018-04-22T07:38:19.044Z,18.00
2018-04-22T07:40:51.608Z,17.53
2018-04-22T07:43:24.178Z,18.80
2018-04-22T07:45:56.666Z,19.40
2018-04-22T07:48:37.045Z,19.50
2018-04-22T07:51:09.643Z,19.53
2018-04-22T07:53:42.122Z,20.07
2018-04-22T07:56:14.812Z,18.63
2018-04-22T07:58:47.853Z,18.13
2018-04-22T08:01:20.319Z,19.87
2018-04-22T08:03:52.831Z,18.20
2018-04-22T08:06:25.463Z,20.83
2018-04-22T08:08:58.238Z,20.42
2018-04-22T08:11:30.774Z,17.83
2018-04-22T08:14:03.206Z,18.35
2018-04-22T08:16:36.289Z,19.17
2018-04-22T08:19:08.807Z,19.37
2018-04-22T08:21:41.263Z,18.87
2018-04-22T08:24:13.992Z,18.35
2018-04-22T08:26:46.335Z,18.60
2018-04-22T08:29:18.860Z,20.83
2018-04-22T08:31:51.413Z,19.05
2018-04-22T08:34:23.955Z,19.67
2018-04-22T08:36:56.602Z,19.05
2018-04-22T08:39:29.193Z,18.80
2018-04-22T08:42:01.739Z,19.00
2018-04-22T08:44:34.298Z,19.15
2018-04-22T08:47:06.676Z,17.73
2018-04-22T08:49:39.878Z,17.90
2018-04-22T08:52:13.156Z,18.00
2018-04-22T08:54:45.776Z,17.85
2018-04-22T08:57:18.248Z,16.15
2018-04-22T08:59:51.776Z,17.37
2018-04-22T09:02:24.236Z,17.45
2018-04-22T09:04:56.627Z,18.37
2018-04-22T09:07:29.167Z,15.65
2018-04-22T09:10:01.692Z,15.82
2018-04-22T09:12:34.064Z,16.30
2018-04-22T09:15:06.598Z,15.93
2018-04-22T09:17:39.104Z,16.05
2018-04-22T09:20:12.373Z,15.77
2018-04-22T09:22:45.059Z,15.82
2018-04-22T09:25:17.582Z,15.02
2018-04-22T09:27:50.325Z,16.67
2018-04-22T09:30:22.926Z,15.15
2018-04-22T09:32:56.283Z,14.87
2018-04-22T09:35:28.878Z,14.87
2018-04-22T09:38:01.429Z,14.98
2018-04-22T09:40:33.956Z,14.60
2018-04-22T09:43:06.432Z,15.23
2018-04-22T09:45:39.733Z,13.93
2018-04-22T09:48:12.240Z,16.08
2018-04-22T09:50:45.402Z,14.75
2018-04-22T09:53:17.924Z,14.63
2018-04-22T09:55:50.554Z,14.02
2018-04-22T09:58:23.844Z,13.50
2018-04-22T10:01:00.441Z,15.60
2018-04-22T10:03:35.718Z,14.43
2018-04-22T10:06:09.092Z,14.13
2018-04-22T10:08:42.432Z,13.73
2018-04-22T10:11:14.877Z,12.18
2018-04-22T10:13:47.468Z,12.90
2018-04-22T10:16:19.974Z,13.05
2018-04-22T10:18:52.319Z,13.75
2018-04-22T10:21:25.619Z,13.23
2018-04-22T10:23:58.235Z,12.13
2018-04-22T10:26:31.003Z,10.98
2018-04-22T10:29:03.469Z,13.48
2018-04-22T10:31:35.912Z,11.90
2018-04-22T10:34:08.567Z,13.32
2018-04-22T10:36:41.014Z,13.62
2018-04-22T10:39:07.357Z,12.05
2018-04-22T10:41:33.656Z,11.48
2018-04-22T10:44:00.122Z,10.45
2018-04-22T10:46:26.518Z,10.70
2018-04-22T10:48:53.083Z,9.45
2018-04-22T10:51:19.478Z,9.90
2018-04-22T10:53:46.623Z,9.55
2018-04-22T10:56:13.997Z,12.07
2018-04-22T10:58:40.474Z,12.05
2018-04-22T11:01:06.948Z,11.75
2018-04-22T11:03:33.253Z,10.80
2018-04-22T11:05:59.567Z,8.95
2018-04-22T11:08:27.353Z,7.90
2018-04-22T11:10:53.913Z,7.90
2018-04-22T11:13:21.562Z,8.07
2018-04-22T11:15:48.697Z,7.25
2018-04-22T11:18:16.117Z,6.72
2018-04-22T11:20:42.407Z,7.60
2018-04-22T11:23:08.722Z,6.68
2018-04-22T11:25:35.263Z,7.05
2018-04-22T11:28:02.618Z,7.03
2018-04-22T11:30:29.718Z,7.43
2018-04-22T11:32:56.553Z,6.50
2018-04-22T11:35:22.827Z,7.50
2018-04-22T11:37:50.930Z,6.97
2018-04-22T11:40:17.844Z,6.55
2018-04-22T11:42:44.219Z,5.62
2018-04-22T11:45:11.178Z,6.15
2018-04-22T11:47:37.804Z,5.93
2018-04-22T11:50:04.307Z,7.72
2018-04-22T11:52:31.513Z,6.80
2018-04-22T11:54:57.882Z,6.70
2018-04-22T11:57:25.079Z,6.53
2018-04-22T11:59:51.673Z,6.30
2018-04-22T12:02:18.842Z,7.50
2018-04-22T12:04:45.204Z,6.80
2018-04-22T12:07:11.673Z,6.28
2018-04-22T12:09:38.025Z,6.03
2018-04-22T12:12:05.105Z,6.22
2018-04-22T12:14:32.128Z,5.82
2018-04-22T12:16:59.348Z,5.82
2018-04-22T12:19:25.922Z,5.43
2018-04-22T12:21:52.218Z,5.40
2018-04-22T12:24:19.189Z,5.18
2018-04-22T12:26:45.688Z,5.32
2018-04-22T12:29:13.795Z,4.78
2018-04-22T12:31:40.883Z,4.10
2018-04-22T12:34:07.365Z,4.90
2018-04-22T12:36:33.744Z,4.35
2018-04-22T12:39:01.253Z,4.82
2018-04-22T12:41:28.456Z,4.43
2018-04-22T12:43:54.739Z,4.87
2018-04-22T12:46:22.950Z,4.53
2018-04-22T12:48:49.283Z,4.55
2018-04-22T12:51:16.313Z,4.68
2018-04-22T12:53:42.767Z,4.37
2018-04-22T12:56:09.195Z,4.15
2018-04-22T12:58:35.551Z,4.30
2018-04-22T13:01:01.858Z,3.75
2018-04-22T13:03:28.205Z,4.72
2018-04-22T13:05:54.573Z,4.32
2018-04-22T13:08:21.690Z,4.55
2018-04-22T13:10:48.126Z,4.47
2018-04-22T13:13:14.864Z,4.40
2018-04-22T13:15:41.349Z,4.43
2018-04-22T13:18:07.980Z,4.15
2018-04-22T13:20:35.369Z,4.55
2018-04-22T13:23:02.620Z,4.12
2018-04-22T13:25:29.227Z,4.65
2018-04-22T13:27:56.795Z,4.45
2018-04-22T13:30:23.299Z,4.65
2018-04-22T13:32:49.742Z,4.30
2018-04-22T13:35:16.118Z,4.47
2018-04-22T13:37:42.694Z,4.68
2018-04-22T13:40:09.090Z,5.28
2018-04-22T13:42:35.524Z,5.05
2018-04-22T13:45:02.674Z,4.80
2018-04-22T13:47:29.141Z,4.68
2018-04-22T13:50:02.559Z,4.40
2018-04-22T13:52:35.767Z,4.72
2018-04-22T13:55:09.236Z,4.70
2018-04-22T13:57:41.810Z,4.53
2018-04-22T14:00:15.556Z,4.32
2018-04-22T14:02:48.096Z,3.92
2018-04-22T14:05:21.748Z,4.37
2018-04-22T14:07:54.273Z,4.53
2018-04-22T14:10:27.043Z,4.68
2018-04-22T14:12:59.507Z,4.53
2018-04-22T14:15:32.324Z,4.55
2018-04-22T14:18:04.883Z,4.50
2018-04-22T14:20:37.425Z,4.55
2018-04-22T14:23:09.902Z,4.40
2018-04-22T14:25:42.602Z,4.40
2018-04-22T14:28:15.870Z,4.05
2018-04-22T14:30:49.187Z,4.65
2018-04-22T14:33:21.581Z,4.10
2018-04-22T14:35:53.937Z,4.47
2018-04-22T14:38:27.613Z,4.43
2018-04-22T14:41:01.028Z,4.10
2018-04-22T14:43:34.426Z,4.35
2018-04-22T14:46:12.406Z,4.62
2018-04-22T14:48:57.201Z,4.65
2018-04-22T14:51:30.626Z,4.12
2018-04-22T14:54:04.015Z,4.32
2018-04-22T14:56:36.470Z,3.92
2018-04-22T14:59:08.964Z,4.78
2018-04-22T15:01:41.615Z,4.50
2018-04-22T15:04:14.008Z,4.22
2018-04-22T15:06:46.619Z,4.47
2018-04-22T15:09:19.116Z,4.40
2018-04-22T15:11:51.867Z,4.55
2018-04-22T15:14:25.851Z,4.62
2018-04-22T15:16:58.339Z,4.22
2018-04-22T15:19:31.254Z,4.47
2018-04-22T15:22:03.765Z,4.80
2018-04-22T15:24:36.963Z,4.75
2018-04-22T15:27:10.427Z,4.87
2018-04-22T15:29:42.932Z,4.90
2018-04-22T15:32:16.083Z,5.18
2018-04-22T15:34:48.876Z,5.22
2018-04-22T15:37:22.234Z,5.45
2018-04-22T15:39:55.503Z,5.60
2018-04-22T15:42:29.053Z,5.50
2018-04-22T15:45:02.397Z,5.32
2018-04-22T15:47:34.875Z,5.82
2018-04-22T15:50:08.725Z,5.82
2018-04-22T15:52:41.419Z,5.50
2018-04-22T15:55:13.985Z,6.20
2018-04-22T15:57:46.513Z,6.93
2018-04-22T16:00:19.357Z,8.27
2018-04-22T16:02:52.159Z,8.07
2018-04-22T16:05:24.892Z,8.27
2018-04-22T16:07:57.487Z,9.40
2018-04-22T16:10:30.541Z,9.20
2018-04-22T16:13:03.869Z,7.30
2018-04-22T16:15:37.215Z,8.40
2018-04-22T16:18:09.914Z,8.33
2018-04-22T16:20:43.245Z,7.80
2018-04-22T16:23:15.785Z,7.20
2018-04-22T16:25:48.505Z,8.57
2018-04-22T16:28:21.200Z,8.13
2018-04-22T16:30:48.688Z,8.80
2018-04-22T16:33:15.373Z,9.77
2018-04-22T16:35:41.966Z,9.43
2018-04-22T16:38:09.112Z,8.50
2018-04-22T16:40:35.531Z,7.93
2018-04-22T16:43:01.813Z,8.00
2018-04-22T16:45:28.156Z,7.80
2018-04-22T16:47:54.713Z,7.43
2018-04-22T16:50:21.281Z,6.90
2018-04-22T16:52:47.901Z,7.10
2018-04-22T16:55:15.090Z,6.63
2018-04-22T16:57:42.203Z,6.37
2018-04-22T17:00:08.565Z,5.70
2018-04-22T17:02:35.984Z,5.53
2018-04-22T17:05:02.906Z,4.90
2018-04-22T17:07:29.670Z,5.10
2018-04-22T17:09:56.299Z,5.00
2018-04-22T17:12:22.859Z,5.90
2018-04-22T17:14:49.242Z,5.60
2018-04-22T17:17:16.366Z,5.03
2018-04-22T17:19:44.585Z,5.57
2018-04-22T17:22:11.602Z,5.60
2018-04-22T17:24:38.910Z,5.63
2018-04-22T17:27:06.321Z,6.27
2018-04-22T17:29:32.915Z,5.93
2018-04-22T17:32:01.951Z,6.93
2018-04-22T17:34:29.039Z,6.53
2018-04-22T17:36:55.881Z,6.53
2018-04-22T17:39:22.861Z,6.83
2018-04-22T17:41:50.411Z,7.17
2018-04-22T17:44:17.078Z,7.20
2018-04-22T17:46:43.681Z,7.50
2018-04-22T17:49:10.117Z,6.30
2018-04-22T17:51:36.521Z,6.23
2018-04-22T17:54:02.929Z,6.20
2018-04-22T17:56:29.513Z,5.50
2018-04-22T17:58:56.195Z,6.10
2018-04-22T18:01:22.559Z,4.60
2018-04-22T18:03:49.694Z,4.30
2018-04-22T18:06:17.171Z,3.90
2018-04-22T18:08:43.520Z,4.43
2018-04-22T18:11:09.919Z,4.03
2018-04-22T18:13:36.443Z,4.17
2018-04-22T18:16:02.862Z,4.17
2018-04-22T18:18:29.440Z,3.93
2018-04-22T18:20:56.197Z,3.63
2018-04-22T18:23:22.612Z,3.80
2018-04-22T18:25:49.048Z,3.17
2018-04-22T18:28:15.612Z,3.60
2018-04-22T18:30:42.197Z,3.70
2018-04-22T18:33:08.948Z,3.53
2018-04-22T18:35:35.774Z,4.00
2018-04-22T18:38:02.381Z,3.70
2018-04-22T18:40:30.123Z,5.77
2018-04-22T18:42:57.058Z,6.40
2018-04-22T18:45:23.668Z,4.77
2018-04-22T18:47:56.542Z,4.60
2018-04-22T18:50:29.769Z,4.30
2018-04-22T18:53:02.664Z,4.20
2018-04-22T18:55:35.255Z,4.13
2018-04-22T18:58:08.421Z,3.40
2018-04-22T19:00:41.300Z,3.50
2018-04-22T19:03:14.663Z,3.90
2018-04-22T19:05:47.677Z,3.50
2018-04-22T19:08:20.623Z,3.50
2018-04-22T19:10:54.034Z,3.30
2018-04-22T19:13:26.940Z,3.33
2018-04-22T19:15:59.739Z,3.20
2018-04-22T19:18:32.993Z,3.47
2018-04-22T19:21:05.498Z,3.73
2018-04-22T19:23:38.204Z,3.97
2018-04-22T19:26:10.973Z,3.83
2018-04-22T19:28:44.515Z,3.80
2018-04-22T19:31:17.184Z,4.03
2018-04-22T19:33:49.881Z,4.30
2018-04-22T19:36:22.517Z,4.87
2018-04-22T19:38:55.351Z,4.37
2018-04-22T19:41:28.264Z,5.60
2018-04-22T19:44:00.939Z,6.40
2018-04-22T19:46:33.923Z,5.80
2018-04-22T19:49:06.367Z,6.37
2018-04-22T19:51:39.864Z,6.30
2018-04-22T19:54:12.658Z,6.17
2018-04-22T19:56:45.626Z,6.60
2018-04-22T19:59:18.862Z,6.70
2018-04-22T20:01:51.821Z,6.77
2018-04-22T20:04:24.534Z,7.17
2018-04-22T20:06:57.592Z,7.13
2018-04-22T20:09:30.138Z,7.47
2018-04-22T20:12:03.816Z,8.70
2018-04-22T20:14:36.414Z,8.83
2018-04-22T20:17:09.135Z,8.40
2018-04-22T20:19:42.079Z,7.57
2018-04-22T20:22:14.709Z,8.40
2018-04-22T20:24:47.700Z,8.57
2018-04-22T20:27:20.572Z,8.20
2018-04-22T20:29:53.334Z,7.80
2018-04-22T20:32:25.960Z,8.73
2018-04-22T20:34:59.980Z,7.67
2018-04-22T20:37:32.724Z,7.57
2018-04-22T20:40:05.558Z,7.80
2018-04-22T20:42:39.100Z,7.93
2018-04-22T20:45:12.563Z,9.00
2018-04-22T20:47:45.064Z,9.10
2018-04-22T20:50:17.744Z,8.80
2018-04-22T20:52:50.349Z,8.23
2018-04-22T20:55:22.866Z,8.10
2018-04-22T20:57:55.473Z,8.67
2018-04-22T21:00:28.248Z,8.43
2018-04-22T21:03:01.154Z,9.37
2018-04-22T21:05:35.022Z,9.00
2018-04-22T21:08:07.853Z,9.40
2018-04-22T21:10:40.573Z,9.50
2018-04-22T21:13:13.948Z,9.40
2018-04-22T21:15:46.502Z,9.50
2018-04-22T21:18:19.354Z,10.60
2018-04-22T21:20:52.065Z,9.23
2018-04-22T21:23:24.667Z,9.70
2018-04-22T21:25:57.362Z,10.50
2018-04-22T21:28:30.262Z,11.10
2018-04-22T21:31:03.020Z,9.97
2018-04-22T21:33:36.125Z,10.03
2018-04-22T21:36:08.833Z,11.53
2018-04-22T21:38:41.374Z,12.50
2018-04-22T21:41:14.059Z,12.90
2018-04-22T21:43:46.655Z,12.10
2018-04-22T21:46:19.095Z,12.80
2018-04-22T21:48:51.539Z,12.70
2018-04-22T21:51:24.933Z,13.03
2018-04-22T21:53:59.103Z,12.67
2018-04-22T21:56:31.588Z,12.37
2018-04-22T21:59:04.341Z,12.10
2018-04-22T22:01:36.880Z,12.53
2018-04-22T22:04:09.174Z,12.37
2018-04-22T22:06:41.668Z,11.77
2018-04-22T22:09:14.272Z,12.27
2018-04-22T22:11:47.538Z,13.00
2018-04-22T22:14:20.499Z,11.40
2018-04-22T22:16:54.462Z,12.10
2018-04-22T22:19:27.064Z,13.20
2018-04-22T22:21:59.855Z,11.63
2018-04-22T22:24:32.339Z,12.93
2018-04-22T22:27:05.545Z,13.23
2018-04-22T22:29:38.559Z,12.47
2018-04-22T22:32:11.156Z,12.47
2018-04-22T22:34:43.664Z,13.40
2018-04-22T22:37:16.038Z,13.10
2018-04-22T22:39:48.587Z,14.43
2018-04-22T22:42:21.175Z,13.10
2018-04-22T22:44:53.938Z,14.80
2018-04-22T22:47:26.655Z,14.10
2018-04-22T22:50:00.017Z,14.63
2018-04-22T22:52:32.480Z,14.57
2018-04-22T22:55:05.646Z,14.97
2018-04-22T22:57:38.962Z,14.60
2018-04-22T23:00:11.783Z,14.77
2018-04-22T23:02:44.977Z,13.20
2018-04-22T23:05:17.457Z,15.67
2018-04-22T23:07:50.793Z,14.27
2018-04-22T23:10:23.298Z,13.00
2018-04-22T23:12:55.905Z,13.57
2018-04-22T23:15:28.388Z,15.07
2018-04-22T23:18:00.859Z,15.93
2018-04-22T23:20:34.240Z,14.90
2018-04-22T23:23:06.741Z,15.17
2018-04-22T23:25:39.271Z,15.37
2018-04-22T23:28:11.842Z,14.93
2018-04-22T23:30:45.185Z,15.00
2018-04-22T23:33:19.142Z,16.37
2018-04-22T23:35:51.594Z,15.30
2018-04-22T23:38:24.055Z,16.03
2018-04-22T23:40:57.433Z,17.40
2018-04-22T23:43:30.053Z,15.23
2018-04-22T23:46:02.859Z,14.53
2018-04-22T23:48:35.344Z,16.53
2018-04-22T23:51:07.844Z,17.70
2018-04-22T23:53:40.384Z,16.03
2018-04-22T23:56:12.780Z,16.07
2018-04-22T23:58:45.270Z,16.20
